Ada, West Virginia
Current Conditions -  °F | °C
As of 6:20 AM on Saturday 01 Nov 2014 (Local Time) from KBLF Reporting Station
Light Snow Light Snow  
Wind Chill: 27°   Ceiling: 600
Heat Index: 33°   Visibility: 1mi
Dew Point: 29°   Wind: 7mph
Humidity: 85%   Direction: 290°WNW
Pressure: 29.81"   Gusts: NA
Location:  37.2994°N, 81.226°W
Report Text: KBLF 011020Z AUTO 29006KT 1SM -SN BR VV006 01/M02 A2981 RMK AO2 P0003 T00061017 FZRANO $
Loading
Personal Weather Stations






























Interactive Weather Map
Tropical Storm Tracking
New forecast layout! Learn more

10-Day Weather Forecast

Advertisements
Track Severe Weather on mobile